Time;durP1;ratioP1;P1;durP2;ratioP2;P2;SDS_P1;SDS_P2;PMS_P1;PMS_P2;Temp;Humidity;BMP_temperature;BMP_pressure;BME280_temperature;BME280_humidity;BME280_pressure;Samples;Min_cycle;Max_cycle;Signal;HPM_P1;HPM_P2
2023/12/25 00:01:21;;;;;;;0.70;0.20;;;;;;;;;;5019313;28;20059;-76
2023/12/25 00:03:47;;;;;;;1.27;0.50;;;;;;;;;;5020805;28;20028;-78
2023/12/25 00:06:12;;;;;;;0.13;0.13;;;;;;;;;;5037368;28;20503;-77
2023/12/25 00:08:38;;;;;;;1.45;0.22;;;;;;;;;;5035778;28;20488;-77
2023/12/25 00:11:04;;;;;;;0.75;0.30;;;;;;;;;;5037395;28;20288;-76
2023/12/25 00:13:29;;;;;;;0.45;0.10;;;;;;;;;;5037243;28;20033;-76
2023/12/25 00:15:55;;;;;;;0.98;0.40;;;;;;;;;;5037194;28;20037;-77
2023/12/25 00:18:22;;;;;;;0.30;0.28;;;;;;;;;;5036636;28;20092;-77
2023/12/25 00:20:49;;;;;;;2.03;0.50;;;;;;;;;;5038461;28;20030;-77
2023/12/25 00:23:15;;;;;;;1.17;0.50;;;;;;;;;;5037245;28;20036;-77
2023/12/25 00:25:41;;;;;;;0.65;0.20;;;;;;;;;;5032320;28;20105;-79
2023/12/25 00:28:07;;;;;;;0.90;0.30;;;;;;;;;;5017657;28;20430;-77
2023/12/25 00:30:33;;;;;;;4.05;0.50;;;;;;;;;;5034341;28;20053;-76
2023/12/25 00:33:01;;;;;;;1.33;0.38;;;;;;;;;;5002772;28;20052;-77
2023/12/25 00:35:28;;;;;;;1.02;0.40;;;;;;;;;;5018631;28;20413;-77
2023/12/25 00:37:54;;;;;;;2.88;0.50;;;;;;;;;;5000221;28;20026;-78
2023/12/25 00:40:20;;;;;;;1.23;0.50;;;;;;;;;;5031884;28;20046;-78
2023/12/25 00:42:46;;;;;;;0.17;0.17;;;;;;;;;;4999132;28;20030;-77
2023/12/25 00:45:11;;;;;;;1.13;0.43;;;;;;;;;;5001768;28;20040;-77
2023/12/25 00:47:37;;;;;;;0.65;0.30;;;;;;;;;;5034412;28;20091;-77
2023/12/25 00:50:02;;;;;;;0.30;0.20;;;;;;;;;;5034062;28;20030;-77
2023/12/25 00:52:29;;;;;;;0.15;0.10;;;;;;;;;;5017849;28;20047;-76
2023/12/25 00:54:55;;;;;;;0.90;0.30;;;;;;;;;;5018679;28;20029;-77
2023/12/25 00:57:20;;;;;;;0.35;0.20;;;;;;;;;;5033867;28;20026;-77
2023/12/25 00:59:46;;;;;;;0.85;0.28;;;;;;;;;;5034963;28;20035;-76
2023/12/25 01:02:12;;;;;;;0.40;0.22;;;;;;;;;;5035048;28;20155;-77
2023/12/25 01:04:37;;;;;;;0.20;0.20;;;;;;;;;;5035415;28;20096;-78
2023/12/25 01:07:03;;;;;;;0.45;0.22;;;;;;;;;;5037752;28;20119;-76
2023/12/25 01:09:28;;;;;;;0.50;0.30;;;;;;;;;;5036889;28;20049;-77
2023/12/25 01:11:54;;;;;;;1.45;0.32;;;;;;;;;;5036696;28;20116;-75
2023/12/25 01:14:19;;;;;;;0.43;0.20;;;;;;;;;;5016568;28;20037;-77
2023/12/25 01:16:45;;;;;;;0.82;0.30;;;;;;;;;;5013995;28;20026;-77
2023/12/25 01:19:12;;;;;;;0.85;0.20;;;;;;;;;;5013863;28;20068;-77
2023/12/25 01:21:38;;;;;;;1.10;0.38;;;;;;;;;;5014429;28;20053;-77
2023/12/25 01:24:03;;;;;;;0.08;0.08;;;;;;;;;;5014247;28;20026;-76
2023/12/25 01:26:30;;;;;;;0.13;0.10;;;;;;;;;;5014740;28;20482;-77
2023/12/25 01:28:56;;;;;;;0.45;0.25;;;;;;;;;;5013203;28;20034;-77
2023/12/25 01:31:21;;;;;;;0.10;0.10;;;;;;;;;;5023137;28;20041;-77
2023/12/25 01:33:47;;;;;;;1.10;0.20;;;;;;;;;;5036875;28;20048;-77
2023/12/25 01:36:12;;;;;;;0.65;0.20;;;;;;;;;;5036471;28;20037;-77
2023/12/25 01:38:38;;;;;;;1.45;0.20;;;;;;;;;;5020870;28;20030;-76
2023/12/25 01:41:03;;;;;;;3.15;0.30;;;;;;;;;;5038383;28;20037;-76
2023/12/25 01:43:29;;;;;;;0.10;0.10;;;;;;;;;;5043295;28;20037;-76
2023/12/25 01:45:54;;;;;;;0.45;0.10;;;;;;;;;;5024294;28;20030;-77
2023/12/25 01:48:20;;;;;;;1.02;0.25;;;;;;;;;;5019117;28;20392;-77
2023/12/25 01:50:46;;;;;;;0.63;0.28;;;;;;;;;;5017896;28;20057;-77
2023/12/25 01:53:12;;;;;;;0.52;0.30;;;;;;;;;;5015764;28;20033;-76
2023/12/25 01:55:38;;;;;;;1.17;0.30;;;;;;;;;;5015175;28;20405;-77
2023/12/25 01:58:04;;;;;;;1.45;0.75;;;;;;;;;;4982510;28;20034;-76
2023/12/25 02:00:33;;;;;;;1.30;0.40;;;;;;;;;;5014669;28;20126;-77
2023/12/25 02:03:00;;;;;;;0.22;0.20;;;;;;;;;;4991495;28;20445;-76
2023/12/25 02:05:26;;;;;;;1.30;0.20;;;;;;;;;;5034243;28;20030;-77
2023/12/25 02:07:51;;;;;;;1.45;0.30;;;;;;;;;;5001218;28;20535;-77
2023/12/25 02:10:29;;;;;;;0.52;0.20;;;;;;;;;;5016179;28;20037;-77
2023/12/25 02:12:55;;;;;;;2.90;0.43;;;;;;;;;;5017338;28;20029;-77
2023/12/25 02:15:22;;;;;;;3.65;0.40;;;;;;;;;;5033386;28;20469;-76
2023/12/25 02:17:49;;;;;;;0.47;0.20;;;;;;;;;;5018211;28;20046;-77
2023/12/25 02:20:14;;;;;;;0.75;0.20;;;;;;;;;;5001123;28;20055;-77
2023/12/25 02:22:40;;;;;;;0.20;0.15;;;;;;;;;;5018198;28;20101;-77
2023/12/25 02:25:07;;;;;;;0.50;0.20;;;;;;;;;;5033922;28;20438;-76
2023/12/25 02:27:32;;;;;;;0.68;0.20;;;;;;;;;;5034287;28;20040;-77
2023/12/25 02:29:58;;;;;;;1.25;0.15;;;;;;;;;;5036507;28;20060;-76
2023/12/25 02:32:23;;;;;;;0.73;0.10;;;;;;;;;;5018557;28;20033;-76
2023/12/25 02:34:49;;;;;;;1.65;0.30;;;;;;;;;;5000496;28;20033;-75
2023/12/25 02:37:15;;;;;;;0.68;0.17;;;;;;;;;;5017431;28;20419;-77
2023/12/25 02:39:41;;;;;;;0.60;0.20;;;;;;;;;;5034123;28;20029;-76
2023/12/25 02:42:06;;;;;;;2.00;0.25;;;;;;;;;;5032542;28;20029;-76
2023/12/25 02:44:32;;;;;;;1.35;0.30;;;;;;;;;;5032293;28;20084;-77
2023/12/25 02:46:57;;;;;;;0.95;0.30;;;;;;;;;;5032503;28;20112;-76
2023/12/25 02:49:23;;;;;;;0.95;0.40;;;;;;;;;;5031927;28;20109;-76
2023/12/25 02:51:48;;;;;;;0.20;0.10;;;;;;;;;;5018249;28;20040;-75
2023/12/25 02:54:14;;;;;;;2.75;0.38;;;;;;;;;;4995811;28;20065;-76
2023/12/25 02:56:40;;;;;;;0.55;0.30;;;;;;;;;;5013565;28;20472;-75
2023/12/25 02:59:06;;;;;;;0.70;0.30;;;;;;;;;;5013567;28;20441;-77
2023/12/25 03:01:32;;;;;;;1.17;0.40;;;;;;;;;;4984592;28;20040;-77
2023/12/25 03:03:57;;;;;;;0.25;0.20;;;;;;;;;;4984908;28;20527;-76
2023/12/25 03:06:23;;;;;;;1.67;0.40;;;;;;;;;;5017026;28;20111;-76
2023/12/25 03:08:48;;;;;;;0.88;0.20;;;;;;;;;;5021522;28;20061;-76
2023/12/25 03:11:14;;;;;;;0.03;0.03;;;;;;;;;;5022161;28;20036;-76
2023/12/25 03:13:39;;;;;;;0.38;0.10;;;;;;;;;;5041821;28;20034;-76
2023/12/25 03:16:05;;;;;;;1.27;0.30;;;;;;;;;;5037783;28;20610;-75
2023/12/25 03:18:31;;;;;;;0.50;0.20;;;;;;;;;;5021046;28;20080;-76
2023/12/25 03:20:57;;;;;;;2.28;0.30;;;;;;;;;;5036558;28;20037;-76
2023/12/25 03:23:22;;;;;;;0.88;0.32;;;;;;;;;;5036689;28;20024;-76
2023/12/25 03:25:48;;;;;;;0.70;0.30;;;;;;;;;;5039660;28;20083;-75
2023/12/25 03:28:13;;;;;;;1.10;0.30;;;;;;;;;;5039961;28;20480;-76
2023/12/25 03:30:39;;;;;;;1.25;0.40;;;;;;;;;;5038019;28;20112;-77
2023/12/25 03:33:04;;;;;;;1.13;0.28;;;;;;;;;;5036660;28;20041;-76
2023/12/25 03:35:30;;;;;;;3.60;0.55;;;;;;;;;;5036614;28;20025;-75
2023/12/25 03:37:55;;;;;;;2.42;0.30;;;;;;;;;;5035722;28;20025;-74
2023/12/25 03:40:21;;;;;;;1.55;0.82;;;;;;;;;;5002973;28;20026;-76
2023/12/25 03:42:46;;;;;;;2.13;0.40;;;;;;;;;;5016230;28;20489;-76
2023/12/25 03:45:12;;;;;;;1.25;0.30;;;;;;;;;;5035185;28;20042;-75
2023/12/25 03:47:37;;;;;;;0.77;0.38;;;;;;;;;;5016792;28;20871;-76
2023/12/25 03:50:03;;;;;;;0.43;0.30;;;;;;;;;;5034273;28;20029;-76
2023/12/25 03:52:29;;;;;;;0.82;0.20;;;;;;;;;;5035269;28;20041;-76
2023/12/25 03:54:54;;;;;;;1.17;0.35;;;;;;;;;;5018109;28;20146;-77
2023/12/25 03:57:20;;;;;;;0.28;0.08;;;;;;;;;;5033173;28;20029;-77
2023/12/25 03:59:45;;;;;;;1.48;0.30;;;;;;;;;;5034073;28;20097;-77
2023/12/25 04:02:11;;;;;;;1.33;0.32;;;;;;;;;;5034116;28;20028;-77
2023/12/25 04:04:39;;;;;;;0.75;0.10;;;;;;;;;;5018916;28;20044;-75
2023/12/25 04:07:05;;;;;;;1.05;0.30;;;;;;;;;;5002378;28;20508;-76
2023/12/25 04:09:30;;;;;;;0.73;0.20;;;;;;;;;;5002078;28;20139;-76
2023/12/25 04:11:56;;;;;;;1.67;0.32;;;;;;;;;;5034905;28;20029;-76
2023/12/25 04:14:22;;;;;;;0.63;0.22;;;;;;;;;;5033732;28;20124;-76
2023/12/25 04:16:47;;;;;;;0.20;0.10;;;;;;;;;;5035131;28;20112;-77
2023/12/25 04:19:13;;;;;;;0.50;0.20;;;;;;;;;;5036324;28;20036;-76
2023/12/25 04:21:38;;;;;;;0.43;0.28;;;;;;;;;;5035377;28;20079;-75
2023/12/25 04:24:04;;;;;;;0.88;0.22;;;;;;;;;;5035395;28;20132;-77
2023/12/25 04:26:30;;;;;;;1.70;0.10;;;;;;;;;;5035674;28;20381;-77
2023/12/25 04:28:55;;;;;;;0.85;0.20;;;;;;;;;;5033054;28;20060;-76
2023/12/25 04:31:21;;;;;;;1.08;0.20;;;;;;;;;;5035635;28;20515;-77
2023/12/25 04:33:48;;;;;;;0.60;0.20;;;;;;;;;;5034611;28;20057;-76
2023/12/25 04:36:13;;;;;;;1.90;0.30;;;;;;;;;;5035408;28;20026;-76
2023/12/25 04:38:39;;;;;;;0.32;0.13;;;;;;;;;;5035072;28;20021;-77
2023/12/25 04:41:05;;;;;;;0.17;0.10;;;;;;;;;;5035978;28;20022;-77
2023/12/25 04:43:31;;;;;;;1.33;0.30;;;;;;;;;;5034404;28;20439;-76
2023/12/25 04:45:57;;;;;;;0.63;0.25;;;;;;;;;;5019070;28;20033;-76
2023/12/25 04:48:22;;;;;;;0.43;0.13;;;;;;;;;;5019546;28;20037;-76
2023/12/25 04:50:48;;;;;;;0.80;0.20;;;;;;;;;;5019110;28;20034;-78
2023/12/25 04:53:14;;;;;;;1.02;0.30;;;;;;;;;;5035865;28;20407;-77
2023/12/25 04:55:40;;;;;;;0.20;0.13;;;;;;;;;;5004474;28;20037;-76
2023/12/25 04:58:06;;;;;;;0.17;0.08;;;;;;;;;;5004613;28;20032;-76
2023/12/25 05:00:32;;;;;;;1.27;0.17;;;;;;;;;;5035645;28;20041;-77
2023/12/25 05:02:58;;;;;;;0.30;0.10;;;;;;;;;;5031907;28;20033;-76
2023/12/25 05:05:23;;;;;;;0.10;0.10;;;;;;;;;;5033943;28;20044;-77
2023/12/25 05:07:49;;;;;;;0.40;0.20;;;;;;;;;;5034805;28;20611;-77
2023/12/25 05:10:14;;;;;;;2.25;0.20;;;;;;;;;;5018875;28;20099;-77
2023/12/25 05:12:40;;;;;;;0.30;0.10;;;;;;;;;;5018243;28;20435;-77
2023/12/25 05:15:05;;;;;;;0.60;0.15;;;;;;;;;;5034337;28;20026;-77
2023/12/25 05:17:31;;;;;;;0.68;0.13;;;;;;;;;;5034263;28;20056;-77
2023/12/25 05:19:57;;;;;;;0.68;0.20;;;;;;;;;;5033748;28;20453;-77
2023/12/25 05:22:23;;;;;;;0.08;0.08;;;;;;;;;;5035364;28;20053;-77
2023/12/25 05:24:48;;;;;;;0.95;0.38;;;;;;;;;;5017242;28;20103;-76
2023/12/25 05:27:13;;;;;;;0.43;0.20;;;;;;;;;;5002455;28;20040;-76
2023/12/25 05:29:39;;;;;;;0.25;0.10;;;;;;;;;;5001929;28;20104;-76
2023/12/25 05:32:05;;;;;;;0.22;0.13;;;;;;;;;;5001361;28;20026;-77
2023/12/25 05:34:30;;;;;;;0.28;0.20;;;;;;;;;;5034928;28;20022;-77
2023/12/25 05:36:57;;;;;;;0.20;0.10;;;;;;;;;;5018177;28;20041;-77
2023/12/25 05:39:24;;;;;;;0.10;0.10;;;;;;;;;;5038139;28;20037;-77
2023/12/25 05:41:50;;;;;;;0.32;0.15;;;;;;;;;;5018336;28;20026;-77
2023/12/25 05:44:18;;;;;;;0.00;0.00;;;;;;;;;;5019289;28;20025;-77
2023/12/25 05:46:44;;;;;;;0.10;0.00;;;;;;;;;;5036002;28;20052;-77
2023/12/25 05:49:09;;;;;;;0.10;0.00;;;;;;;;;;5032088;28;20061;-76
2023/12/25 05:51:35;;;;;;;0.85;0.17;;;;;;;;;;5017868;28;20097;-76
2023/12/25 05:54:01;;;;;;;0.32;0.13;;;;;;;;;;4999822;28;20034;-76
2023/12/25 05:56:27;;;;;;;0.45;0.10;;;;;;;;;;5017612;28;20045;-77
2023/12/25 05:58:52;;;;;;;0.35;0.10;;;;;;;;;;5015715;28;20484;-77
2023/12/25 06:01:18;;;;;;;0.45;0.10;;;;;;;;;;5016313;28;20113;-76
2023/12/25 06:03:44;;;;;;;0.45;0.10;;;;;;;;;;5028394;28;20022;-76
2023/12/25 06:06:10;;;;;;;0.45;0.10;;;;;;;;;;5034142;28;20037;-77
2023/12/25 06:08:35;;;;;;;3.50;0.20;;;;;;;;;;5018106;28;20033;-75
2023/12/25 06:11:01;;;;;;;0.13;0.10;;;;;;;;;;5034392;28;20064;-76
2023/12/25 06:13:27;;;;;;;0.77;0.22;;;;;;;;;;5038493;28;20385;-76
2023/12/25 06:15:52;;;;;;;0.95;0.20;;;;;;;;;;5032296;28;20084;-75
2023/12/25 06:18:18;;;;;;;0.20;0.10;;;;;;;;;;5035278;28;20026;-76
2023/12/25 06:20:44;;;;;;;0.40;0.10;;;;;;;;;;5036046;28;20025;-76
2023/12/25 06:23:10;;;;;;;0.22;0.15;;;;;;;;;;5018802;28;20036;-77
2023/12/25 06:25:35;;;;;;;0.20;0.10;;;;;;;;;;4999771;28;20033;-76
2023/12/25 06:28:01;;;;;;;0.10;0.10;;;;;;;;;;5015394;28;20048;-77
2023/12/25 06:30:26;;;;;;;0.25;0.05;;;;;;;;;;5015730;28;20034;-76
2023/12/25 06:32:52;;;;;;;0.47;0.15;;;;;;;;;;5029846;28;20038;-76
2023/12/25 06:35:17;;;;;;;0.20;0.03;;;;;;;;;;5033648;28;20041;-76
2023/12/25 06:37:43;;;;;;;0.43;0.13;;;;;;;;;;5018074;28;20135;-76
2023/12/25 06:40:09;;;;;;;0.25;0.10;;;;;;;;;;5034515;28;20033;-77
2023/12/25 06:42:34;;;;;;;0.63;0.20;;;;;;;;;;5034373;28;20025;-77
2023/12/25 06:45:00;;;;;;;0.17;0.13;;;;;;;;;;5033826;28;20029;-76
2023/12/25 06:47:26;;;;;;;0.47;0.30;;;;;;;;;;5034516;28;20562;-77
2023/12/25 06:49:52;;;;;;;0.38;0.10;;;;;;;;;;5033821;28;20056;-77
2023/12/25 06:52:18;;;;;;;0.20;0.10;;;;;;;;;;5034263;28;20025;-77
2023/12/25 06:54:43;;;;;;;0.52;0.20;;;;;;;;;;5001238;28;20031;-76
2023/12/25 06:57:09;;;;;;;0.25;0.10;;;;;;;;;;5034565;28;20041;-77
2023/12/25 06:59:34;;;;;;;0.10;0.10;;;;;;;;;;5018282;28;20087;-76
2023/12/25 07:02:00;;;;;;;2.03;0.30;;;;;;;;;;5035608;28;20025;-77
2023/12/25 07:04:25;;;;;;;0.17;0.17;;;;;;;;;;5034156;28;20082;-77
2023/12/25 07:06:51;;;;;;;0.70;0.20;;;;;;;;;;5028252;28;20488;-77
2023/12/25 07:09:16;;;;;;;0.30;0.20;;;;;;;;;;5015657;28;20057;-76
2023/12/25 07:11:42;;;;;;;0.40;0.20;;;;;;;;;;5015771;28;20500;-76
2023/12/25 07:14:08;;;;;;;0.30;0.20;;;;;;;;;;5015709;28;20038;-75
2023/12/25 07:16:33;;;;;;;0.73;0.20;;;;;;;;;;5014059;28;20030;-76
2023/12/25 07:18:59;;;;;;;0.43;0.10;;;;;;;;;;5016814;28;20026;-76
2023/12/25 07:21:25;;;;;;;1.13;0.30;;;;;;;;;;5021596;28;20037;-76
2023/12/25 07:23:52;;;;;;;0.00;0.00;;;;;;;;;;5019880;28;20037;-77
2023/12/25 07:26:18;;;;;;;0.80;0.28;;;;;;;;;;5016325;28;20026;-76
2023/12/25 07:28:44;;;;;;;0.45;0.25;;;;;;;;;;4999522;28;20493;-77
2023/12/25 07:31:10;;;;;;;0.28;0.15;;;;;;;;;;5016118;28;20033;-77
2023/12/25 07:33:36;;;;;;;0.32;0.30;;;;;;;;;;4998497;28;20052;-77
2023/12/25 07:36:02;;;;;;;1.88;0.38;;;;;;;;;;5016791;28;20033;-77
2023/12/25 07:38:28;;;;;;;0.65;0.20;;;;;;;;;;5015794;28;20030;-77
2023/12/25 07:40:53;;;;;;;0.55;0.30;;;;;;;;;;5021990;28;20040;-76
2023/12/25 07:43:19;;;;;;;0.65;0.28;;;;;;;;;;5034180;28;20088;-77
2023/12/25 07:45:44;;;;;;;0.77;0.43;;;;;;;;;;5033040;28;20053;-77
2023/12/25 07:48:10;;;;;;;0.98;0.30;;;;;;;;;;5035134;28;20108;-77
2023/12/25 07:50:36;;;;;;;0.60;0.30;;;;;;;;;;5019348;28;20026;-77
2023/12/25 07:53:02;;;;;;;0.77;0.40;;;;;;;;;;5035502;28;20091;-77
2023/12/25 07:55:29;;;;;;;0.52;0.38;;;;;;;;;;5034389;28;20055;-77
2023/12/25 07:57:55;;;;;;;1.45;0.45;;;;;;;;;;5033263;28;20362;-77
2023/12/25 08:00:21;;;;;;;0.90;0.50;;;;;;;;;;5031080;28;20180;-77
2023/12/25 08:02:46;;;;;;;1.33;0.40;;;;;;;;;;5034773;28;20065;-77
2023/12/25 08:05:12;;;;;;;0.77;0.60;;;;;;;;;;5033524;28;20037;-78
2023/12/25 08:07:37;;;;;;;3.38;1.45;;;;;;;;;;5034516;28;20033;-77
2023/12/25 08:10:03;;;;;;;2.35;0.50;;;;;;;;;;5033246;28;20034;-78
2023/12/25 08:12:28;;;;;;;2.10;0.38;;;;;;;;;;5034996;28;20033;-78
2023/12/25 08:14:54;;;;;;;1.30;0.40;;;;;;;;;;5034830;28;20029;-79
2023/12/25 08:17:20;;;;;;;1.33;0.55;;;;;;;;;;5017070;28;20033;-78
2023/12/25 08:19:46;;;;;;;0.60;0.30;;;;;;;;;;5032064;28;20030;-78
2023/12/25 08:22:11;;;;;;;2.33;0.50;;;;;;;;;;5001018;28;20534;-79
2023/12/25 08:24:37;;;;;;;1.98;0.40;;;;;;;;;;5033268;28;20090;-79
2023/12/25 08:27:03;;;;;;;0.60;0.30;;;;;;;;;;5000423;28;20038;-78
2023/12/25 08:29:28;;;;;;;0.98;0.35;;;;;;;;;;5032766;28;20049;-78
2023/12/25 08:31:55;;;;;;;0.70;0.25;;;;;;;;;;5016449;28;20033;-78
2023/12/25 08:34:23;;;;;;;0.52;0.22;;;;;;;;;;5032543;28;20037;-78
2023/12/25 08:36:48;;;;;;;1.87;0.60;;;;;;;;;;5015177;28;20580;-78
2023/12/25 08:39:14;;;;;;;1.02;0.40;;;;;;;;;;4999647;28;20361;-78
2023/12/25 08:41:40;;;;;;;1.05;0.50;;;;;;;;;;5033732;28;20025;-78
2023/12/25 08:44:06;;;;;;;1.20;0.52;;;;;;;;;;5032200;28;20116;-78
2023/12/25 08:46:32;;;;;;;1.00;0.60;;;;;;;;;;5034916;28;20037;-79
2023/12/25 08:48:57;;;;;;;1.08;0.40;;;;;;;;;;5034264;28;20124;-78
2023/12/25 08:51:23;;;;;;;2.15;0.60;;;;;;;;;;5033742;28;20036;-78
2023/12/25 08:53:48;;;;;;;1.42;0.60;;;;;;;;;;5016152;28;20029;-78
2023/12/25 08:56:26;;;;;;;1.83;0.90;;;;;;;;;;5034669;28;20051;-78
2023/12/25 08:58:52;;;;;;;1.27;0.60;;;;;;;;;;5017774;28;20224;-78
2023/12/25 09:01:18;;;;;;;0.80;0.50;;;;;;;;;;5000592;28;20033;-78
2023/12/25 09:03:44;;;;;;;1.70;0.80;;;;;;;;;;5000119;28;20037;-78
2023/12/25 09:06:09;;;;;;;2.20;0.63;;;;;;;;;;5015879;28;20038;-78
2023/12/25 09:08:34;;;;;;;1.45;0.52;;;;;;;;;;5032726;28;20083;-78
2023/12/25 09:11:00;;;;;;;0.95;0.40;;;;;;;;;;5034323;28;20044;-77
2023/12/25 09:13:25;;;;;;;0.73;0.40;;;;;;;;;;5033593;28;20030;-78
2023/12/25 09:15:51;;;;;;;3.90;0.95;;;;;;;;;;5034788;28;20037;-78
2023/12/25 09:18:16;;;;;;;0.43;0.40;;;;;;;;;;5019266;28;20117;-77
2023/12/25 09:20:42;;;;;;;1.15;0.47;;;;;;;;;;5036514;28;20040;-78
2023/12/25 09:23:07;;;;;;;0.98;0.30;;;;;;;;;;5041295;28;20029;-79
2023/12/25 09:25:33;;;;;;;2.10;0.60;;;;;;;;;;5041866;28;20036;-79
2023/12/25 09:27:59;;;;;;;1.38;0.43;;;;;;;;;;5040475;28;20064;-79
2023/12/25 09:30:24;;;;;;;1.60;0.55;;;;;;;;;;5041637;28;20076;-80
2023/12/25 09:32:50;;;;;;;1.13;0.50;;;;;;;;;;5040710;28;20045;-80
2023/12/25 09:35:17;;;;;;;0.95;0.50;;;;;;;;;;5040445;28;20032;-80
2023/12/25 09:37:43;;;;;;;0.52;0.40;;;;;;;;;;5024698;28;20392;-81
2023/12/25 09:40:10;;;;;;;1.20;0.57;;;;;;;;;;5034372;28;20072;-81
2023/12/25 09:42:36;;;;;;;2.67;0.57;;;;;;;;;;5036202;28;20056;-81
2023/12/25 09:45:01;;;;;;;1.48;0.63;;;;;;;;;;5037674;28;20034;-81
2023/12/25 09:47:27;;;;;;;0.80;0.45;;;;;;;;;;5021648;28;20069;-80
2023/12/25 09:49:53;;;;;;;1.13;0.60;;;;;;;;;;5004310;28;20038;-80
2023/12/25 09:52:20;;;;;;;1.70;0.60;;;;;;;;;;5037351;28;20045;-80
2023/12/25 09:54:45;;;;;;;0.75;0.40;;;;;;;;;;5053780;28;20064;-80
2023/12/25 09:57:13;;;;;;;3.25;0.68;;;;;;;;;;5052357;28;20485;-81
2023/12/25 09:59:40;;;;;;;;;;;;;;;;;;5036151;28;20037;-80
2023/12/25 10:02:06;;;;;;;3.42;0.88;;;;;;;;;;5054705;28;19915;-79
2023/12/25 10:04:34;;;;;;;1.85;0.45;;;;;;;;;;5021594;28;20045;-80
2023/12/25 10:06:59;;;;;;;2.28;0.80;;;;;;;;;;5021351;28;20039;-80
2023/12/25 10:09:25;;;;;;;2.13;1.17;;;;;;;;;;5058858;28;20017;-79
2023/12/25 10:11:51;;;;;;;2.95;0.88;;;;;;;;;;5024780;28;20040;-79
2023/12/25 10:14:18;;;;;;;1.95;0.70;;;;;;;;;;5036799;28;20033;-80
2023/12/25 10:16:43;;;;;;;1.63;0.82;;;;;;;;;;5038428;28;20052;-80
2023/12/25 10:19:09;;;;;;;1.48;0.70;;;;;;;;;;5037463;28;20061;-80
2023/12/25 10:21:44;;;;;;;1.70;0.60;;;;;;;;;;5020613;28;20055;-80
2023/12/25 10:24:11;;;;;;;1.65;0.55;;;;;;;;;;5054097;28;20085;-80
2023/12/25 10:26:37;;;;;;;2.10;0.85;;;;;;;;;;5037029;28;20056;-81
2023/12/25 10:29:08;;;;;;;2.42;1.00;;;;;;;;;;5018233;28;20560;-81
2023/12/25 10:31:36;;;;;;;2.28;0.70;;;;;;;;;;5033693;28;20088;-79
2023/12/25 10:34:01;;;;;;;2.13;0.90;;;;;;;;;;5034395;28;20041;-80
2023/12/25 10:36:27;;;;;;;2.20;1.10;;;;;;;;;;5051156;28;20116;-80
2023/12/25 10:38:52;;;;;;;1.58;0.90;;;;;;;;;;5052705;28;20029;-80
2023/12/25 10:41:19;;;;;;;2.10;0.80;;;;;;;;;;5013853;28;20052;-79
2023/12/25 10:43:52;;;;;;;1.58;0.77;;;;;;;;;;5041464;28;20060;-76
2023/12/25 10:46:25;;;;;;;2.80;0.98;;;;;;;;;;5041360;28;20036;-78
2023/12/25 10:48:54;;;;;;;1.88;0.80;;;;;;;;;;5023035;28;20029;-77
2023/12/25 10:51:34;;;;;;;1.00;0.70;;;;;;;;;;5043892;28;20383;-77
2023/12/25 10:54:01;;;;;;;2.00;0.80;;;;;;;;;;5044835;28;20099;-78
2023/12/25 10:56:27;;;;;;;2.45;0.85;;;;;;;;;;5038417;28;20036;-77
2023/12/25 10:58:53;;;;;;;1.25;0.50;;;;;;;;;;5021504;28;20121;-78
2023/12/25 11:01:26;;;;;;;1.00;0.57;;;;;;;;;;5021353;28;20060;-78
2023/12/25 11:03:53;;;;;;;0.98;0.50;;;;;;;;;;5054310;28;20036;-79
2023/12/25 11:06:19;;;;;;;0.95;0.55;;;;;;;;;;5039629;28;20021;-79
2023/12/25 11:08:48;;;;;;;0.73;0.30;;;;;;;;;;5020894;28;20041;-80
2023/12/25 11:11:14;;;;;;;1.33;0.50;;;;;;;;;;5025065;28;20033;-80
2023/12/25 11:13:41;;;;;;;4.18;0.55;;;;;;;;;;5025990;28;20073;-81
2023/12/25 11:16:09;;;;;;;1.83;0.70;;;;;;;;;;5058948;28;20075;-80
2023/12/25 11:18:37;;;;;;;2.22;0.80;;;;;;;;;;5041764;28;20083;-78
2023/12/25 11:21:07;;;;;;;1.10;0.50;;;;;;;;;;5021391;28;20029;-79
2023/12/25 11:23:34;;;;;;;0.90;0.50;;;;;;;;;;5028330;28;20112;-78
2023/12/25 11:26:00;;;;;;;1.25;0.63;;;;;;;;;;5039403;28;20555;-78
2023/12/25 11:28:26;;;;;;;1.52;0.90;;;;;;;;;;5008032;28;20084;-78
2023/12/25 11:30:52;;;;;;;0.55;0.30;;;;;;;;;;5025300;28;20022;-79
2023/12/25 11:33:21;;;;;;;2.17;0.60;;;;;;;;;;5025053;28;20085;-79
2023/12/25 11:35:46;;;;;;;0.85;0.50;;;;;;;;;;5024506;28;20195;-78
2023/12/25 11:38:25;;;;;;;1.73;0.52;;;;;;;;;;5041693;28;20065;-79
2023/12/25 11:40:51;;;;;;;;;;;;;;;;;;5040725;28;20068;-80
2023/12/25 11:43:20;;;;;;;1.50;0.73;;;;;;;;;;5042236;28;19909;-80
2023/12/25 11:45:46;;;;;;;1.58;0.60;;;;;;;;;;5024584;28;20027;-81
2023/12/25 11:48:12;;;;;;;1.73;0.85;;;;;;;;;;5007201;28;20034;-81
2023/12/25 11:50:38;;;;;;;1.08;0.40;;;;;;;;;;5007108;28;20040;-80
2023/12/25 11:53:03;;;;;;;2.15;0.55;;;;;;;;;;5023878;28;20060;-80
2023/12/25 11:55:30;;;;;;;1.25;0.52;;;;;;;;;;5008801;28;20040;-80
2023/12/25 11:57:55;;;;;;;1.05;0.40;;;;;;;;;;5040895;28;20049;-79
2023/12/25 12:00:29;;;;;;;9.52;0.85;;;;;;;;;;5042152;28;20060;-79
2023/12/25 12:02:55;;;;;;;1.98;0.50;;;;;;;;;;5041628;28;20018;-79
2023/12/25 12:05:21;;;;;;;2.97;0.50;;;;;;;;;;5023379;28;20037;-79
2023/12/25 12:07:47;;;;;;;1.42;0.40;;;;;;;;;;5039280;28;20371;-80
2023/12/25 12:10:14;;;;;;;1.83;0.45;;;;;;;;;;5007075;28;20048;-79
2023/12/25 12:12:40;;;;;;;2.10;0.45;;;;;;;;;;5023951;28;20127;-80
2023/12/25 12:15:06;;;;;;;2.08;0.70;;;;;;;;;;5008495;28;20030;-79
2023/12/25 12:17:34;;;;;;;0.68;0.40;;;;;;;;;;5024862;28;20029;-80
2023/12/25 12:20:00;;;;;;;1.15;0.50;;;;;;;;;;5007875;28;20108;-81
2023/12/25 12:22:26;;;;;;;1.02;0.43;;;;;;;;;;5041784;28;20036;-80
2023/12/25 12:24:52;;;;;;;1.00;0.50;;;;;;;;;;5007714;28;20463;-79
2023/12/25 12:27:19;;;;;;;1.27;0.55;;;;;;;;;;5006956;28;20092;-80
2023/12/25 12:29:48;;;;;;;1.25;0.60;;;;;;;;;;5039922;28;20362;-79
2023/12/25 12:32:14;;;;;;;2.17;0.52;;;;;;;;;;5023659;28;20040;-79
2023/12/25 12:34:40;;;;;;;1.92;0.90;;;;;;;;;;5021900;28;20033;-80
2023/12/25 12:37:09;;;;;;;0.63;0.50;;;;;;;;;;5022124;28;20034;-79
2023/12/25 12:39:36;;;;;;;1.00;0.50;;;;;;;;;;5006421;28;20069;-79
2023/12/25 12:42:07;;;;;;;0.80;0.50;;;;;;;;;;5006200;28;20037;-79
2023/12/25 12:44:33;;;;;;;1.58;0.80;;;;;;;;;;5005286;28;20069;-79
2023/12/25 12:46:58;;;;;;;2.78;1.00;;;;;;;;;;4989770;28;20048;-80
2023/12/25 12:49:24;;;;;;;3.30;1.50;;;;;;;;;;5021025;28;20033;-79
2023/12/25 12:51:50;;;;;;;3.13;1.58;;;;;;;;;;4987794;28;20029;-78
2023/12/25 12:54:15;;;;;;;2.70;1.50;;;;;;;;;;5021068;28;20033;-78
2023/12/25 12:56:41;;;;;;;4.40;1.60;;;;;;;;;;5006672;28;20036;-79
2023/12/25 12:59:06;;;;;;;3.65;1.50;;;;;;;;;;5023260;28;20030;-79
2023/12/25 13:01:33;;;;;;;2.72;1.42;;;;;;;;;;5038576;28;20058;-79
2023/12/25 13:03:59;;;;;;;3.78;1.90;;;;;;;;;;5022891;28;20009;-79
2023/12/25 13:06:25;;;;;;;2.97;1.52;;;;;;;;;;5051854;28;20403;-78
2023/12/25 13:08:55;;;;;;;5.32;2.55;;;;;;;;;;5033468;28;20022;-79
2023/12/25 13:11:25;;;;;;;4.00;1.20;;;;;;;;;;5051777;28;20030;-79
2023/12/25 13:13:51;;;;;;;3.20;0.90;;;;;;;;;;5049415;28;20021;-80
2023/12/25 13:16:19;;;;;;;1.85;0.68;;;;;;;;;;5046420;28;20033;-79
2023/12/25 13:18:49;;;;;;;3.00;0.80;;;;;;;;;;5045660;28;20025;-79
2023/12/25 13:21:14;;;;;;;2.67;0.90;;;;;;;;;;5014309;28;20033;-80
2023/12/25 13:23:44;;;;;;;1.75;0.82;;;;;;;;;;5015963;28;20276;-80
2023/12/25 13:26:10;;;;;;;1.08;0.70;;;;;;;;;;5020199;28;20056;-80
2023/12/25 13:28:36;;;;;;;0.80;0.60;;;;;;;;;;5048377;28;20037;-80
2023/12/25 13:31:02;;;;;;;1.88;0.90;;;;;;;;;;5046664;28;20169;-80
2023/12/25 13:33:28;;;;;;;3.08;0.95;;;;;;;;;;5044074;28;20116;-80
2023/12/25 13:35:56;;;;;;;1.98;1.05;;;;;;;;;;5046550;28;20061;-79
2023/12/25 13:38:23;;;;;;;2.25;1.17;;;;;;;;;;5042783;28;20025;-79
2023/12/25 13:40:50;;;;;;;2.33;1.05;;;;;;;;;;5007733;28;20030;-80
2023/12/25 13:43:16;;;;;;;2.05;0.90;;;;;;;;;;5008995;28;20030;-80
2023/12/25 13:45:41;;;;;;;3.22;1.20;;;;;;;;;;5022676;28;20056;-80
2023/12/25 13:48:07;;;;;;;2.83;0.98;;;;;;;;;;4992288;28;20033;-80
2023/12/25 13:50:33;;;;;;;2.63;1.17;;;;;;;;;;5008502;28;20382;-81
2023/12/25 13:52:58;;;;;;;4.10;1.55;;;;;;;;;;5010814;28;20156;-80
2023/12/25 13:55:29;;;;;;;3.08;1.35;;;;;;;;;;4995041;28;20105;-80
2023/12/25 13:57:54;;;;;;;2.25;1.00;;;;;;;;;;4991506;28;20029;-80
2023/12/25 14:00:21;;;;;;;3.70;1.08;;;;;;;;;;5007066;28;20106;-79
2023/12/25 14:02:49;;;;;;;1.30;0.88;;;;;;;;;;5006065;28;20073;-79
2023/12/25 14:05:14;;;;;;;4.13;0.98;;;;;;;;;;5039339;28;20496;-79
2023/12/25 14:07:40;;;;;;;4.88;0.90;;;;;;;;;;5039748;28;20034;-79
2023/12/25 14:10:06;;;;;;;1.98;0.82;;;;;;;;;;5007990;28;20021;-80
2023/12/25 14:12:34;;;;;;;2.33;0.75;;;;;;;;;;5041214;28;20369;-80
2023/12/25 14:14:59;;;;;;;1.27;0.70;;;;;;;;;;5042619;28;20029;-79
2023/12/25 14:17:25;;;;;;;4.82;0.70;;;;;;;;;;5008668;28;20323;-80
2023/12/25 14:19:51;;;;;;;1.52;0.70;;;;;;;;;;5008126;28;20035;-80
2023/12/25 14:22:19;;;;;;;;;;;;;;;;;;5008688;28;20598;-79
2023/12/25 14:24:48;;;;;;;1.13;0.68;;;;;;;;;;5037824;28;19963;-79
2023/12/25 14:27:13;;;;;;;1.60;0.77;;;;;;;;;;5039604;28;20041;-80
2023/12/25 14:29:39;;;;;;;4.18;0.98;;;;;;;;;;5039398;28;20030;-79
2023/12/25 14:32:08;;;;;;;2.92;1.30;;;;;;;;;;5040059;28;20053;-79
2023/12/25 14:34:34;;;;;;;2.65;1.25;;;;;;;;;;5002903;28;20030;-80
2023/12/25 14:37:00;;;;;;;3.13;1.23;;;;;;;;;;5002979;28;20042;-80